createdAt,value
2017-11-28T00:00:00.664Z,0
2017-11-28T00:01:00.652Z,0
2017-11-28T00:02:00.642Z,0
2017-11-28T00:03:00.649Z,0
2017-11-28T00:04:00.616Z,0
2017-11-28T00:05:00.626Z,0
2017-11-28T00:06:00.601Z,0
2017-11-28T00:07:00.310Z,0
2017-11-28T00:08:00.311Z,0
2017-11-28T00:09:00.558Z,0
2017-11-28T00:10:00.573Z,0
2017-11-28T00:11:00.552Z,0
2017-11-28T00:12:00.517Z,0
2017-11-28T00:13:00.498Z,0
2017-11-28T00:14:00.495Z,0
2017-11-28T00:15:00.488Z,0
2017-11-28T00:16:00.472Z,0
2017-11-28T00:17:00.705Z,0
2017-11-28T00:18:00.180Z,0
2017-11-28T00:19:00.425Z,0
2017-11-28T00:20:00.421Z,0
2017-11-28T00:21:00.406Z,0
2017-11-28T00:22:00.400Z,0
2017-11-28T00:23:00.408Z,0
2017-11-28T00:24:00.378Z,0
2017-11-28T00:25:00.356Z,0
2017-11-28T00:26:00.092Z,0
2017-11-28T00:27:00.340Z,0
2017-11-28T00:28:00.342Z,0
2017-11-28T00:29:00.314Z,0
2017-11-28T00:30:00.301Z,0
2017-11-28T00:31:00.282Z,0
2017-11-28T00:32:00.013Z,0
2017-11-28T00:33:00.257Z,0
2017-11-28T00:34:00.010Z,0
2017-11-28T00:35:00.262Z,0
2017-11-28T00:36:00.248Z,0
2017-11-28T00:36:59.952Z,0
2017-11-28T00:37:59.936Z,0
2017-11-28T00:38:59.939Z,0
2017-11-28T00:39:59.641Z,0
2017-11-28T00:40:59.933Z,0
2017-11-28T00:42:00.144Z,0
2017-11-28T00:42:59.881Z,0
2017-11-28T00:44:00.153Z,0
2017-11-28T00:45:00.123Z,0
2017-11-28T00:46:00.172Z,0
2017-11-28T00:47:00.104Z,0
2017-11-28T00:48:00.346Z,0
2017-11-28T00:49:00.083Z,0
2017-11-28T00:50:00.072Z,0
2017-11-28T00:51:00.076Z,0
2017-11-28T00:52:00.038Z,0
2017-11-28T00:53:00.020Z,0
2017-11-28T00:53:59.755Z,0
2017-11-28T00:55:00.031Z,0
2017-11-28T00:55:59.995Z,0
2017-11-28T00:56:59.986Z,0
2017-11-28T00:57:59.984Z,0
2017-11-28T00:58:59.968Z,0
2017-11-28T00:59:59.719Z,0
2017-11-28T01:00:59.953Z,0
2017-11-28T01:01:59.928Z,0
2017-11-28T01:02:59.911Z,0
2017-11-28T01:03:59.919Z,0
2017-11-28T01:04:59.884Z,0
2017-11-28T01:05:59.903Z,0
2017-11-28T01:06:59.885Z,0
2017-11-28T01:07:59.874Z,0
2017-11-28T01:08:59.875Z,0
2017-11-28T01:09:59.834Z,0
2017-11-28T01:10:59.570Z,0
2017-11-28T01:11:59.815Z,0
2017-11-28T01:12:59.789Z,0
2017-11-28T01:13:59.787Z,0
2017-11-28T01:14:59.760Z,0
2017-11-28T01:15:59.772Z,0
2017-11-28T01:16:59.752Z,0
2017-11-28T01:17:59.759Z,0
2017-11-28T01:18:59.732Z,0
2017-11-28T01:19:59.982Z,0
2017-11-28T01:20:59.716Z,0
2017-11-28T01:21:59.694Z,0
2017-11-28T01:22:59.687Z,0
2017-11-28T01:23:59.674Z,0
2017-11-28T01:24:59.671Z,0
2017-11-28T01:25:59.677Z,0
2017-11-28T01:26:59.112Z,0
2017-11-28T01:27:59.627Z,0
2017-11-28T01:28:59.339Z,0
2017-11-28T01:29:59.607Z,0
2017-11-28T01:30:59.585Z,0
2017-11-28T01:31:59.578Z,0
2017-11-28T01:32:59.581Z,0
2017-11-28T01:33:59.549Z,0
2017-11-28T01:34:59.293Z,0
2017-11-28T01:35:59.521Z,0
2017-11-28T01:36:59.260Z,0
2017-11-28T01:37:59.501Z,0
2017-11-28T01:38:59.492Z,0
2017-11-28T01:39:59.497Z,0
2017-11-28T01:40:59.481Z,0
2017-11-28T01:41:59.512Z,0
2017-11-28T01:42:59.455Z,0
2017-11-28T01:43:59.474Z,0
2017-11-28T01:44:59.442Z,0
2017-11-28T01:45:59.408Z,0
2017-11-28T01:46:59.404Z,0
2017-11-28T01:47:59.394Z,0
2017-11-28T01:48:59.398Z,0
2017-11-28T01:49:59.372Z,0
2017-11-28T01:50:59.600Z,0
2017-11-28T01:51:59.349Z,0
2017-11-28T01:52:59.324Z,0
2017-11-28T01:53:59.079Z,0
2017-11-28T01:54:59.311Z,0
2017-11-28T01:55:59.318Z,0
2017-11-28T01:56:59.301Z,0
2017-11-28T01:57:59.277Z,0
2017-11-28T01:58:59.299Z,0
2017-11-28T01:59:59.280Z,0
2017-11-28T02:00:58.988Z,0
2017-11-28T02:01:59.302Z,0
2017-11-28T02:02:59.223Z,0
2017-11-28T02:03:59.216Z,0
2017-11-28T02:04:59.202Z,0
2017-11-28T02:05:59.191Z,0
2017-11-28T02:06:59.207Z,0
2017-11-28T02:07:59.162Z,0
2017-11-28T02:08:59.149Z,0
2017-11-28T02:09:59.142Z,0
2017-11-28T02:10:59.112Z,0
2017-11-28T02:11:59.107Z,0
2017-11-28T02:12:59.102Z,0
2017-11-28T02:13:59.104Z,0
2017-11-28T02:14:58.818Z,0
2017-11-28T02:15:59.068Z,0
2017-11-28T02:16:59.045Z,0
2017-11-28T02:17:59.053Z,0
2017-11-28T02:18:59.033Z,0
2017-11-28T02:19:59.025Z,0
2017-11-28T02:20:59.012Z,0
2017-11-28T02:21:59.257Z,0
2017-11-28T02:22:58.744Z,0
2017-11-28T02:23:58.735Z,0
2017-11-28T02:24:58.693Z,0
2017-11-28T02:25:58.943Z,0
2017-11-28T02:26:58.934Z,0
2017-11-28T02:27:58.930Z,0
2017-11-28T02:28:58.915Z,0
2017-11-28T02:29:58.634Z,0
2017-11-28T02:30:58.639Z,0
2017-11-28T02:31:58.868Z,0
2017-11-28T02:32:58.863Z,0
2017-11-28T02:33:58.856Z,0
2017-11-28T02:34:58.863Z,0
2017-11-28T02:35:58.872Z,0
2017-11-28T02:36:58.816Z,0
2017-11-28T02:37:58.814Z,0
2017-11-28T02:38:58.791Z,0
2017-11-28T02:39:58.783Z,0
2017-11-28T02:40:58.772Z,0
2017-11-28T02:41:58.757Z,0
2017-11-28T02:42:58.767Z,0
2017-11-28T02:43:58.747Z,0
2017-11-28T02:44:58.732Z,0
2017-11-28T02:45:58.703Z,0
2017-11-28T02:46:58.706Z,0
2017-11-28T02:47:58.679Z,0
2017-11-28T02:48:58.686Z,0
2017-11-28T02:49:58.658Z,0
2017-11-28T02:50:58.670Z,0
2017-11-28T02:51:58.637Z,0
2017-11-28T02:52:58.875Z,0
2017-11-28T02:53:58.619Z,0
2017-11-28T02:54:58.615Z,0
2017-11-28T02:55:58.627Z,0
2017-11-28T02:56:58.586Z,0
2017-11-28T02:57:58.569Z,0
2017-11-28T02:58:58.552Z,0
2017-11-28T02:59:58.521Z,0
2017-11-28T03:00:58.527Z,0
2017-11-28T03:01:58.525Z,0
2017-11-28T03:02:58.520Z,0
2017-11-28T03:03:58.483Z,0
2017-11-28T03:04:58.479Z,0
2017-11-28T03:05:57.964Z,0
2017-11-28T03:06:58.447Z,0
2017-11-28T03:07:58.445Z,0
2017-11-28T03:08:58.440Z,0
2017-11-28T03:09:58.442Z,0
2017-11-28T03:10:58.417Z,0
2017-11-28T03:11:58.400Z,0
2017-11-28T03:12:58.395Z,0
2017-11-28T03:13:58.093Z,0
2017-11-28T03:14:58.357Z,0
2017-11-28T03:15:58.352Z,0
2017-11-28T03:16:58.339Z,0
2017-11-28T03:17:58.329Z,0
2017-11-28T03:18:58.065Z,0
2017-11-28T03:19:58.034Z,0
2017-11-28T03:20:57.772Z,0
2017-11-28T03:21:58.264Z,0
2017-11-28T03:22:58.263Z,0
2017-11-28T03:23:58.518Z,0
2017-11-28T03:24:58.246Z,0
2017-11-28T03:25:57.735Z,0
2017-11-28T03:26:57.959Z,0
2017-11-28T03:27:58.195Z,0
2017-11-28T03:28:58.212Z,0
2017-11-28T03:29:58.178Z,0
2017-11-28T03:30:58.215Z,0
2017-11-28T03:31:57.887Z,0
2017-11-28T03:32:58.136Z,0
2017-11-28T03:33:58.126Z,0
2017-11-28T03:34:58.126Z,0
2017-11-28T03:35:58.112Z,0
2017-11-28T03:36:58.102Z,0
2017-11-28T03:37:57.837Z,0
2017-11-28T03:38:58.082Z,0
2017-11-28T03:39:58.091Z,0
2017-11-28T03:40:58.058Z,0
2017-11-28T03:41:58.053Z,0
2017-11-28T03:42:57.766Z,0
2017-11-28T03:43:58.047Z,0
2017-11-28T03:44:58.014Z,0
2017-11-28T03:45:58.022Z,0
2017-11-28T03:46:58.025Z,0
2017-11-28T03:47:57.982Z,0
2017-11-28T03:48:57.978Z,0
2017-11-28T03:49:57.980Z,0
2017-11-28T03:50:57.954Z,0
2017-11-28T03:51:57.932Z,0
2017-11-28T03:52:57.917Z,0
2017-11-28T03:53:57.936Z,0
2017-11-28T03:54:57.877Z,0
2017-11-28T03:55:57.868Z,0
2017-11-28T03:56:57.853Z,0
2017-11-28T03:57:57.867Z,0
2017-11-28T03:58:57.824Z,0
2017-11-28T03:59:57.829Z,0
2017-11-28T04:00:57.821Z,0
2017-11-28T04:01:57.540Z,0
2017-11-28T04:02:57.802Z,0
2017-11-28T04:03:57.777Z,0
2017-11-28T04:04:57.768Z,0
2017-11-28T04:05:57.773Z,0
2017-11-28T04:06:57.761Z,0
2017-11-28T04:07:57.751Z,0
2017-11-28T04:08:57.734Z,0
2017-11-28T04:09:57.727Z,0
2017-11-28T04:10:57.749Z,0
2017-11-28T04:11:57.708Z,0
2017-11-28T04:12:57.698Z,0
2017-11-28T04:13:57.691Z,0
2017-11-28T04:14:57.648Z,0
2017-11-28T04:15:57.407Z,0
2017-11-28T04:16:57.649Z,0
2017-11-28T04:17:57.611Z,0
2017-11-28T04:18:57.640Z,0
2017-11-28T04:19:57.354Z,0
2017-11-28T04:20:57.340Z,0
2017-11-28T04:21:57.574Z,0
2017-11-28T04:22:57.570Z,0
2017-11-28T04:23:57.309Z,0
2017-11-28T04:24:57.554Z,0
2017-11-28T04:25:57.554Z,0
2017-11-28T04:26:57.818Z,0
2017-11-28T04:27:57.253Z,0
2017-11-28T04:28:57.514Z,0
2017-11-28T04:29:57.527Z,0
2017-11-28T04:30:57.491Z,0
2017-11-28T04:31:57.213Z,0
2017-11-28T04:32:57.461Z,0
2017-11-28T04:33:57.190Z,0
2017-11-28T04:34:57.444Z,0
2017-11-28T04:35:57.418Z,0
2017-11-28T04:36:57.426Z,0
2017-11-28T04:37:57.150Z,0
2017-11-28T04:38:57.405Z,0
2017-11-28T04:39:57.400Z,0
2017-11-28T04:40:57.378Z,0
2017-11-28T04:41:57.364Z,0
2017-11-28T04:42:57.099Z,0
2017-11-28T04:43:57.349Z,0
2017-11-28T04:44:57.328Z,0
2017-11-28T04:45:57.321Z,0
2017-11-28T04:46:57.287Z,0
2017-11-28T04:47:57.306Z,0
2017-11-28T04:48:57.282Z,0
2017-11-28T04:49:57.275Z,0
2017-11-28T04:50:57.305Z,0
2017-11-28T04:51:57.270Z,0
2017-11-28T04:52:57.236Z,0
2017-11-28T04:53:57.265Z,0
2017-11-28T04:54:57.223Z,0
2017-11-28T04:55:57.251Z,0
2017-11-28T04:56:57.192Z,0
2017-11-28T04:57:57.435Z,0
2017-11-28T04:58:57.186Z,0
2017-11-28T04:59:57.156Z,0
2017-11-28T05:00:57.146Z,0
2017-11-28T05:01:57.183Z,0
2017-11-28T05:02:56.865Z,0
2017-11-28T05:03:57.128Z,0
2017-11-28T05:04:57.114Z,0
2017-11-28T05:05:56.840Z,0
2017-11-28T05:06:57.087Z,0
2017-11-28T05:07:57.065Z,0
2017-11-28T05:08:57.060Z,0
2017-11-28T05:09:56.846Z,0
2017-11-28T05:10:56.790Z,0
2017-11-28T05:11:57.027Z,0
2017-11-28T05:12:57.025Z,0
2017-11-28T05:13:56.740Z,0
2017-11-28T05:14:56.989Z,0
2017-11-28T05:15:56.728Z,0
2017-11-28T05:16:56.984Z,0
2017-11-28T05:17:56.975Z,0
2017-11-28T05:18:56.950Z,0
2017-11-28T05:19:56.935Z,0
2017-11-28T05:20:56.686Z,0
2017-11-28T05:21:56.942Z,0
2017-11-28T05:22:56.919Z,0
2017-11-28T05:23:56.893Z,0
2017-11-28T05:24:56.919Z,0
2017-11-28T05:25:56.636Z,0
2017-11-28T05:26:56.857Z,0
2017-11-28T05:27:56.879Z,0
2017-11-28T05:28:57.102Z,0
2017-11-28T05:29:56.831Z,0
2017-11-28T05:30:56.809Z,0
2017-11-28T05:31:56.809Z,0
2017-11-28T05:32:56.804Z,0
2017-11-28T05:33:56.795Z,0
2017-11-28T05:34:56.771Z,0
2017-11-28T05:35:56.768Z,0
2017-11-28T05:36:56.817Z,0
2017-11-28T05:37:56.742Z,0
2017-11-28T05:38:56.472Z,0
2017-11-28T05:39:56.726Z,0
2017-11-28T05:40:56.699Z,0
2017-11-28T05:41:56.707Z,0
2017-11-28T05:42:56.709Z,0
2017-11-28T05:43:56.734Z,0
2017-11-28T05:44:56.673Z,0
2017-11-28T05:45:56.680Z,0
2017-11-28T05:46:56.651Z,0
2017-11-28T05:47:56.640Z,0
2017-11-28T05:48:56.618Z,0
2017-11-28T05:49:56.634Z,0
2017-11-28T05:50:56.618Z,0
2017-11-28T05:51:56.590Z,0
2017-11-28T05:52:56.601Z,0
2017-11-28T05:53:56.577Z,0
2017-11-28T05:54:56.563Z,0
2017-11-28T05:55:56.297Z,0
2017-11-28T05:56:56.351Z,0
2017-11-28T05:57:56.517Z,0
2017-11-28T05:58:56.263Z,0
2017-11-28T05:59:56.760Z,0
2017-11-28T06:00:56.494Z,0
2017-11-28T06:01:56.493Z,0
2017-11-28T06:02:56.447Z,0
2017-11-28T06:03:56.441Z,0
2017-11-28T06:04:56.453Z,0
2017-11-28T06:05:56.436Z,0
2017-11-28T06:06:56.434Z,0
2017-11-28T06:07:56.399Z,0
2017-11-28T06:08:56.394Z,0
2017-11-28T06:09:56.146Z,0
2017-11-28T06:10:56.387Z,0
2017-11-28T06:11:56.378Z,0
2017-11-28T06:12:56.353Z,0
2017-11-28T06:13:56.344Z,0
2017-11-28T06:14:56.328Z,0
2017-11-28T06:15:56.347Z,0
2017-11-28T06:16:56.305Z,0
2017-11-28T06:17:56.312Z,0
2017-11-28T06:18:56.291Z,0
2017-11-28T06:19:56.033Z,0
2017-11-28T06:20:56.267Z,0
2017-11-28T06:21:56.274Z,0
2017-11-28T06:22:56.244Z,0
2017-11-28T06:23:56.275Z,0
2017-11-28T06:24:56.247Z,0
2017-11-28T06:25:56.200Z,0
2017-11-28T06:26:55.939Z,0
2017-11-28T06:27:56.185Z,0
2017-11-28T06:28:56.176Z,0
2017-11-28T06:29:56.184Z,0
2017-11-28T06:30:56.428Z,0
2017-11-28T06:31:56.141Z,0
2017-11-28T06:32:56.155Z,0
2017-11-28T06:33:56.115Z,0
2017-11-28T06:34:56.102Z,0
2017-11-28T06:35:56.115Z,0
2017-11-28T06:36:56.108Z,0
2017-11-28T06:37:55.811Z,0
2017-11-28T06:38:56.077Z,0
2017-11-28T06:39:56.059Z,0
2017-11-28T06:40:56.032Z,0
2017-11-28T06:41:56.051Z,0
2017-11-28T06:42:56.028Z,0
2017-11-28T06:43:56.023Z,0
2017-11-28T06:44:56.005Z,0
2017-11-28T06:45:55.980Z,0
2017-11-28T06:46:55.975Z,0
2017-11-28T06:47:55.974Z,5
2017-11-28T06:48:55.714Z,5
2017-11-28T06:49:55.691Z,5
2017-11-28T06:50:55.950Z,5
2017-11-28T06:51:55.929Z,5
2017-11-28T06:52:55.913Z,5
2017-11-28T06:53:55.897Z,5
2017-11-28T06:54:55.893Z,5
2017-11-28T06:55:55.887Z,5
2017-11-28T06:56:55.897Z,5
2017-11-28T06:57:55.879Z,5
2017-11-28T06:58:55.859Z,5
2017-11-28T06:59:55.819Z,5
2017-11-28T07:00:55.856Z,5
2017-11-28T07:01:55.546Z,5
2017-11-28T07:02:55.774Z,10
2017-11-28T07:03:55.530Z,10
2017-11-28T07:04:55.800Z,10
2017-11-28T07:05:55.780Z,10
2017-11-28T07:06:55.493Z,10
2017-11-28T07:07:55.505Z,10
2017-11-28T07:08:55.767Z,10
2017-11-28T07:09:55.460Z,10
2017-11-28T07:10:55.444Z,10
2017-11-28T07:11:55.437Z,15
2017-11-28T07:12:55.702Z,15
2017-11-28T07:13:55.411Z,15
2017-11-28T07:14:55.664Z,15
2017-11-28T07:15:55.652Z,15
2017-11-28T07:16:55.650Z,15
2017-11-28T07:17:55.648Z,20
2017-11-28T07:18:55.360Z,20
2017-11-28T07:19:55.611Z,20
2017-11-28T07:20:55.612Z,20
2017-11-28T07:21:55.593Z,20
2017-11-28T07:22:55.602Z,20
2017-11-28T07:23:55.560Z,20
2017-11-28T07:24:55.555Z,20
2017-11-28T07:25:55.553Z,20
2017-11-28T07:26:55.508Z,20
2017-11-28T07:27:55.512Z,20
2017-11-28T07:28:55.236Z,20
2017-11-28T07:29:55.045Z,20
2017-11-28T07:30:55.214Z,20
2017-11-28T07:31:55.479Z,20
2017-11-28T07:32:55.456Z,20
2017-11-28T07:33:55.425Z,20
2017-11-28T07:34:55.192Z,25
2017-11-28T07:35:55.159Z,25
2017-11-28T07:36:54.891Z,30
2017-11-28T07:37:55.134Z,30
2017-11-28T07:38:55.401Z,35
2017-11-28T07:39:55.392Z,35
2017-11-28T07:40:55.369Z,40
2017-11-28T07:41:55.360Z,40
2017-11-28T07:42:55.364Z,45
2017-11-28T07:43:54.802Z,45
2017-11-28T07:44:55.076Z,45
2017-11-28T07:45:55.051Z,50
2017-11-28T07:46:55.320Z,50
2017-11-28T07:47:55.287Z,55
2017-11-28T07:48:55.287Z,55
2017-11-28T07:49:55.252Z,55
2017-11-28T07:50:55.250Z,55
2017-11-28T07:51:55.002Z,50
2017-11-28T07:52:55.221Z,50
2017-11-28T07:53:55.236Z,50
2017-11-28T07:54:55.205Z,50
2017-11-28T07:55:54.948Z,45
2017-11-28T07:56:54.949Z,45
2017-11-28T07:57:55.191Z,45
2017-11-28T07:58:55.163Z,45
2017-11-28T07:59:55.150Z,50
2017-11-28T08:00:54.889Z,50
2017-11-28T08:01:55.160Z,55
2017-11-28T08:02:55.113Z,60
2017-11-28T08:03:54.842Z,60
2017-11-28T08:04:55.341Z,60
2017-11-28T08:05:54.811Z,60
2017-11-28T08:06:55.092Z,60
2017-11-28T08:07:55.075Z,65
2017-11-28T08:08:55.063Z,70
2017-11-28T08:09:55.063Z,75
2017-11-28T08:10:55.029Z,80
2017-11-28T08:11:55.043Z,80
2017-11-28T08:12:55.040Z,80
2017-11-28T08:13:55.026Z,85
2017-11-28T08:14:54.992Z,80
2017-11-28T08:15:54.974Z,80
2017-11-28T08:16:55.009Z,80
2017-11-28T08:17:54.947Z,80
2017-11-28T08:18:54.699Z,80
2017-11-28T08:19:54.947Z,80
2017-11-28T08:20:54.913Z,75
2017-11-28T08:21:54.925Z,75
2017-11-28T08:22:54.896Z,75
2017-11-28T08:23:54.871Z,70
2017-11-28T08:24:54.901Z,70
2017-11-28T08:25:54.874Z,70
2017-11-28T08:26:54.599Z,70
2017-11-28T08:27:54.879Z,75
2017-11-28T08:28:54.870Z,75
2017-11-28T08:29:54.603Z,75
2017-11-28T08:30:54.837Z,80
2017-11-28T08:31:54.830Z,80
2017-11-28T08:32:54.778Z,85
2017-11-28T08:33:54.530Z,90
2017-11-28T08:34:54.805Z,90
2017-11-28T08:35:55.038Z,95
2017-11-28T08:36:54.498Z,100
2017-11-28T08:37:54.494Z,105
2017-11-28T08:38:54.471Z,105
2017-11-28T08:39:54.459Z,105
2017-11-28T08:40:54.746Z,105
2017-11-28T08:41:54.697Z,105
2017-11-28T08:42:54.459Z,105
2017-11-28T08:43:54.691Z,110
2017-11-28T08:44:54.455Z,110
2017-11-28T08:45:54.685Z,115
2017-11-28T08:46:54.716Z,115
2017-11-28T08:47:54.648Z,115
2017-11-28T08:48:54.643Z,115
2017-11-28T08:49:54.634Z,120
2017-11-28T08:50:54.623Z,125
2017-11-28T08:51:54.845Z,125
2017-11-28T08:52:54.337Z,130
2017-11-28T08:53:54.325Z,140
2017-11-28T08:54:54.362Z,140
2017-11-28T08:55:54.736Z,135
2017-11-28T08:56:54.419Z,125
2017-11-28T08:57:54.571Z,115
2017-11-28T08:58:54.339Z,110
2017-11-28T08:59:54.673Z,110
2017-11-28T09:00:54.821Z,105
2017-11-28T09:01:54.566Z,100
2017-11-28T09:02:54.541Z,100
2017-11-28T09:03:54.299Z,100
2017-11-28T09:04:55.135Z,100
2017-11-28T09:05:54.526Z,105
2017-11-28T09:06:54.767Z,105
2017-11-28T09:07:54.223Z,100
2017-11-28T09:08:54.469Z,100
2017-11-28T09:09:54.485Z,105
2017-11-28T09:10:54.245Z,105
2017-11-28T09:11:54.584Z,105
2017-11-28T09:12:54.558Z,105
2017-11-28T09:13:54.374Z,105
2017-11-28T09:14:54.412Z,100
2017-11-28T09:15:54.591Z,95
2017-11-28T09:16:54.395Z,90
2017-11-28T09:17:54.366Z,90
2017-11-28T09:18:54.383Z,95
2017-11-28T09:19:54.072Z,95
2017-11-28T09:20:54.330Z,95
2017-11-28T09:21:54.376Z,95
2017-11-28T09:22:54.455Z,100
2017-11-28T09:23:54.266Z,100
2017-11-28T09:24:54.301Z,105
2017-11-28T09:25:54.276Z,105
2017-11-28T09:26:54.238Z,110
2017-11-28T09:27:54.283Z,110
2017-11-28T09:28:53.982Z,115
2017-11-28T09:29:54.038Z,120
2017-11-28T09:30:54.224Z,130
2017-11-28T09:31:53.945Z,140
2017-11-28T09:32:53.999Z,145
2017-11-28T09:33:54.202Z,145
2017-11-28T09:34:54.217Z,145
2017-11-28T09:35:54.407Z,145
2017-11-28T09:36:53.900Z,145
2017-11-28T09:37:54.407Z,140
2017-11-28T09:38:53.907Z,125
2017-11-28T09:39:54.166Z,120
2017-11-28T09:40:54.344Z,110
2017-11-28T09:41:53.865Z,110
2017-11-28T09:42:54.079Z,110
2017-11-28T09:43:54.168Z,115
2017-11-28T09:44:53.835Z,115
2017-11-28T09:45:53.785Z,120
2017-11-28T09:46:53.780Z,125
2017-11-28T09:47:54.051Z,120
2017-11-28T09:48:53.521Z,120
2017-11-28T09:49:53.518Z,120
2017-11-28T09:50:53.738Z,120
2017-11-28T09:51:54.035Z,120
2017-11-28T09:52:54.021Z,120
2017-11-28T09:53:53.772Z,125
2017-11-28T09:54:53.968Z,130
2017-11-28T09:55:54.000Z,135
2017-11-28T09:56:54.129Z,135
2017-11-28T09:57:53.651Z,135
2017-11-28T09:58:53.718Z,135
2017-11-28T09:59:54.040Z,135
2017-11-28T10:00:53.910Z,140
2017-11-28T10:01:53.656Z,140
2017-11-28T10:02:53.609Z,145
2017-11-28T10:03:53.636Z,145
2017-11-28T10:04:53.893Z,140
2017-11-28T10:05:53.869Z,140
2017-11-28T10:06:53.880Z,135
2017-11-28T10:07:53.868Z,140
2017-11-28T10:08:53.599Z,145
2017-11-28T10:09:53.863Z,155
2017-11-28T10:10:53.791Z,160
2017-11-28T10:11:53.546Z,170
2017-11-28T10:12:53.817Z,165
2017-11-28T10:13:53.813Z,165
2017-11-28T10:14:53.515Z,165
2017-11-28T10:15:53.778Z,170
2017-11-28T10:16:53.750Z,170
2017-11-28T10:17:53.746Z,170
2017-11-28T10:18:53.480Z,165
2017-11-28T10:19:53.467Z,170
2017-11-28T10:20:53.707Z,155
2017-11-28T10:21:53.690Z,150
2017-11-28T10:22:53.700Z,155
2017-11-28T10:23:53.738Z,160
2017-11-28T10:24:53.685Z,165
2017-11-28T10:25:53.708Z,175
2017-11-28T10:26:53.727Z,175
2017-11-28T10:27:54.006Z,175
2017-11-28T10:28:53.645Z,175
2017-11-28T10:29:53.388Z,175
2017-11-28T10:30:53.612Z,175
2017-11-28T10:31:54.056Z,175
2017-11-28T10:32:53.647Z,175
2017-11-28T10:33:53.324Z,175
2017-11-28T10:34:53.605Z,175
2017-11-28T10:35:53.295Z,170
2017-11-28T10:36:53.577Z,165
2017-11-28T10:37:53.086Z,150
2017-11-28T10:38:53.041Z,150
2017-11-28T10:39:53.573Z,155
2017-11-28T10:40:53.791Z,160
2017-11-28T10:41:53.557Z,160
2017-11-28T10:42:53.494Z,155
2017-11-28T10:43:53.228Z,150
2017-11-28T10:44:53.542Z,150
2017-11-28T10:45:53.508Z,155
2017-11-28T10:46:53.516Z,160
2017-11-28T10:47:53.202Z,160
2017-11-28T10:48:53.197Z,160
2017-11-28T10:49:53.454Z,160
2017-11-28T10:50:53.473Z,160
2017-11-28T10:51:53.158Z,160
2017-11-28T10:52:53.465Z,165
2017-11-28T10:53:53.425Z,170
2017-11-28T10:54:53.411Z,180
2017-11-28T10:55:53.132Z,180
2017-11-28T10:56:53.412Z,185
2017-11-28T10:57:53.400Z,190
2017-11-28T10:58:53.107Z,195
2017-11-28T10:59:53.103Z,190
2017-11-28T11:00:53.418Z,190
2017-11-28T11:01:53.066Z,200
2017-11-28T11:02:53.044Z,195
2017-11-28T11:03:53.361Z,180
2017-11-28T11:04:53.075Z,185
2017-11-28T11:05:52.768Z,185
2017-11-28T11:06:53.018Z,185
2017-11-28T11:07:53.043Z,185
2017-11-28T11:08:53.015Z,175
2017-11-28T11:09:53.005Z,170
2017-11-28T11:10:52.798Z,175
2017-11-28T11:11:53.475Z,185
2017-11-28T11:12:52.973Z,195
2017-11-28T11:13:53.259Z,200
2017-11-28T11:14:52.742Z,200
2017-11-28T11:15:53.272Z,200
2017-11-28T11:16:52.942Z,205
2017-11-28T11:17:53.250Z,205
2017-11-28T11:18:53.228Z,210
2017-11-28T11:19:53.155Z,215
2017-11-28T11:20:53.175Z,205
2017-11-28T11:21:52.995Z,230
2017-11-28T11:22:53.207Z,230
2017-11-28T11:23:53.163Z,225
2017-11-28T11:24:53.179Z,225
2017-11-28T11:25:53.127Z,220
2017-11-28T11:26:52.859Z,215
2017-11-28T11:27:53.153Z,210
2017-11-28T11:28:52.840Z,215
2017-11-28T11:29:53.094Z,215
2017-11-28T11:30:52.556Z,220
2017-11-28T11:31:53.071Z,215
2017-11-28T11:32:52.529Z,210
2017-11-28T11:33:53.107Z,210
2017-11-28T11:34:52.572Z,210
2017-11-28T11:35:52.772Z,200
2017-11-28T11:36:53.015Z,195
2017-11-28T11:37:53.006Z,195
2017-11-28T11:38:52.766Z,200
2017-11-28T11:39:53.219Z,200
2017-11-28T11:40:53.664Z,205
2017-11-28T11:41:52.936Z,215
2017-11-28T11:42:53.233Z,215
2017-11-28T11:43:53.131Z,230
2017-11-28T11:44:52.990Z,230
2017-11-28T11:45:52.764Z,230
2017-11-28T11:46:52.892Z,225
2017-11-28T11:47:52.722Z,220
2017-11-28T11:48:52.965Z,210
2017-11-28T11:49:52.460Z,200
2017-11-28T11:50:52.977Z,190
2017-11-28T11:51:52.644Z,180
2017-11-28T11:52:53.241Z,170
2017-11-28T11:53:52.585Z,165
2017-11-28T11:54:52.933Z,170
2017-11-28T11:55:52.589Z,175
2017-11-28T11:56:52.602Z,180
2017-11-28T11:57:52.876Z,185
2017-11-28T11:58:52.831Z,190
2017-11-28T11:59:52.777Z,195
2017-11-28T12:00:52.862Z,195
2017-11-28T12:01:52.804Z,195
2017-11-28T12:02:52.806Z,195
2017-11-28T12:03:52.515Z,190
2017-11-28T12:04:52.528Z,185
2017-11-28T12:05:52.755Z,180
2017-11-28T12:06:52.242Z,175
2017-11-28T12:07:52.756Z,175
2017-11-28T12:08:52.562Z,170
2017-11-28T12:09:52.752Z,165
2017-11-28T12:10:52.455Z,170
2017-11-28T12:11:52.525Z,160
2017-11-28T12:12:52.707Z,155
2017-11-28T12:13:52.701Z,155
2017-11-28T12:14:52.739Z,160
2017-11-28T12:15:52.200Z,160
2017-11-28T12:16:51.905Z,150
2017-11-28T12:17:52.386Z,165
2017-11-28T12:18:52.945Z,160
2017-11-28T12:19:52.644Z,155
2017-11-28T12:20:52.408Z,155
2017-11-28T12:21:52.643Z,150
2017-11-28T12:22:52.610Z,145
2017-11-28T12:23:52.320Z,140
2017-11-28T12:24:52.396Z,135
2017-11-28T12:25:52.670Z,125
2017-11-28T12:26:52.504Z,120
2017-11-28T12:27:52.064Z,115
2017-11-28T12:28:52.045Z,115
2017-11-28T12:29:52.018Z,115
2017-11-28T12:30:52.303Z,115
2017-11-28T12:31:52.281Z,115
2017-11-28T12:32:52.261Z,120
2017-11-28T12:33:52.256Z,120
2017-11-28T12:34:52.500Z,120
2017-11-28T12:35:52.255Z,115
2017-11-28T12:36:52.252Z,115
2017-11-28T12:37:52.231Z,110
2017-11-28T12:38:52.512Z,110
2017-11-28T12:39:52.485Z,105
2017-11-28T12:40:51.917Z,105
2017-11-28T12:41:52.183Z,105
2017-11-28T12:42:52.436Z,105
2017-11-28T12:43:52.165Z,105
2017-11-28T12:44:52.730Z,105
2017-11-28T12:45:52.154Z,100
2017-11-28T12:46:52.139Z,100
2017-11-28T12:47:52.386Z,100
2017-11-28T12:48:52.411Z,105
2017-11-28T12:49:52.112Z,105
2017-11-28T12:50:52.154Z,105
2017-11-28T12:51:52.344Z,105
2017-11-28T12:52:52.096Z,100
2017-11-28T12:53:52.086Z,100
2017-11-28T12:54:52.114Z,95
2017-11-28T12:55:52.292Z,95
2017-11-28T12:56:52.150Z,95
2017-11-28T12:57:52.366Z,90
2017-11-28T12:58:52.286Z,90
2017-11-28T12:59:52.323Z,90
2017-11-28T13:00:52.092Z,90
2017-11-28T13:01:51.741Z,90
2017-11-28T13:02:51.996Z,90
2017-11-28T13:03:52.293Z,90
2017-11-28T13:04:52.238Z,95
2017-11-28T13:05:51.955Z,105
2017-11-28T13:06:51.681Z,105
2017-11-28T13:07:51.942Z,105
2017-11-28T13:08:52.194Z,110
2017-11-28T13:09:52.199Z,105
2017-11-28T13:10:52.157Z,105
2017-11-28T13:11:52.133Z,115
2017-11-28T13:12:52.139Z,120
2017-11-28T13:13:52.137Z,120
2017-11-28T13:14:52.209Z,105
2017-11-28T13:15:52.114Z,95
2017-11-28T13:16:52.347Z,85
2017-11-28T13:17:52.095Z,85
2017-11-28T13:18:51.811Z,85
2017-11-28T13:19:52.115Z,85
2017-11-28T13:20:51.785Z,85
2017-11-28T13:21:52.062Z,90
2017-11-28T13:22:51.796Z,90
2017-11-28T13:23:51.743Z,90
2017-11-28T13:24:52.317Z,90
2017-11-28T13:25:51.468Z,85
2017-11-28T13:26:52.023Z,85
2017-11-28T13:27:51.993Z,85
2017-11-28T13:28:51.218Z,85
2017-11-28T13:29:52.030Z,85
2017-11-28T13:30:51.722Z,90
2017-11-28T13:31:51.955Z,90
2017-11-28T13:32:51.958Z,85
2017-11-28T13:33:51.912Z,85
2017-11-28T13:34:51.644Z,85
2017-11-28T13:35:51.391Z,85
2017-11-28T13:36:51.651Z,80
2017-11-28T13:37:51.627Z,80
2017-11-28T13:38:51.361Z,80
2017-11-28T13:39:51.605Z,80
2017-11-28T13:40:51.837Z,80
2017-11-28T13:41:51.810Z,80
2017-11-28T13:42:51.568Z,75
2017-11-28T13:43:51.281Z,75
2017-11-28T13:44:51.517Z,70
2017-11-28T13:45:51.780Z,70
2017-11-28T13:46:51.780Z,70
2017-11-28T13:47:51.499Z,70
2017-11-28T13:48:51.516Z,65
2017-11-28T13:49:51.509Z,65
2017-11-28T13:50:51.483Z,60
2017-11-28T13:51:51.719Z,60
2017-11-28T13:52:51.700Z,60
2017-11-28T13:53:51.152Z,60
2017-11-28T13:54:51.436Z,60
2017-11-28T13:55:51.412Z,60
2017-11-28T13:56:51.659Z,55
2017-11-28T13:57:51.675Z,60
2017-11-28T13:58:51.503Z,60
2017-11-28T13:59:51.723Z,60
2017-11-28T14:00:51.388Z,55
2017-11-28T14:01:51.390Z,55
2017-11-28T14:02:51.369Z,55
2017-11-28T14:03:51.590Z,55
2017-11-28T14:04:51.350Z,55
2017-11-28T14:05:51.331Z,50
2017-11-28T14:06:51.361Z,50
2017-11-28T14:07:51.302Z,45
2017-11-28T14:08:51.317Z,45
2017-11-28T14:09:51.516Z,40
2017-11-28T14:10:51.550Z,40
2017-11-28T14:11:51.260Z,40
2017-11-28T14:12:51.296Z,40
2017-11-28T14:13:51.273Z,35
2017-11-28T14:14:50.971Z,35
2017-11-28T14:15:51.524Z,35
2017-11-28T14:16:51.504Z,30
2017-11-28T14:17:51.464Z,30
2017-11-28T14:18:51.973Z,30
2017-11-28T14:19:51.217Z,30
2017-11-28T14:20:51.718Z,25